createdAt,value
2018-03-11T00:00:12.348Z,976.96
2018-03-11T00:01:12.274Z,977.01
2018-03-11T00:02:12.232Z,976.98
2018-03-11T00:03:12.153Z,976.98
2018-03-11T00:04:12.089Z,976.95
2018-03-11T00:05:11.975Z,976.88
2018-03-11T00:06:11.937Z,976.87
2018-03-11T00:07:11.848Z,976.84
2018-03-11T00:08:11.790Z,976.78
2018-03-11T00:09:11.745Z,976.79
2018-03-11T00:10:11.681Z,976.82
2018-03-11T00:11:11.583Z,976.81
2018-03-11T00:12:11.501Z,976.82
2018-03-11T00:13:11.444Z,976.81
2018-03-11T00:14:11.365Z,976.84
2018-03-11T00:15:11.316Z,976.82
2018-03-11T00:16:11.223Z,976.80
2018-03-11T00:17:11.154Z,976.75
2018-03-11T00:18:11.085Z,976.73
2018-03-11T00:19:11.015Z,976.71
2018-03-11T00:20:10.968Z,976.69
2018-03-11T00:21:10.881Z,976.67
2018-03-11T00:22:10.824Z,976.67
2018-03-11T00:23:10.745Z,976.66
2018-03-11T00:24:10.675Z,976.56
2018-03-11T00:25:10.638Z,976.55
2018-03-11T00:26:10.553Z,976.53
2018-03-11T00:27:10.462Z,976.55
2018-03-11T00:28:10.432Z,976.57
2018-03-11T00:29:10.365Z,976.57
2018-03-11T00:30:10.282Z,976.56
2018-03-11T00:31:10.193Z,976.61
2018-03-11T00:32:10.136Z,976.63
2018-03-11T00:33:10.077Z,976.69
2018-03-11T00:34:09.999Z,976.68
2018-03-11T00:35:09.933Z,976.68
2018-03-11T00:36:09.849Z,976.66
2018-03-11T00:37:09.794Z,976.63
2018-03-11T00:38:09.714Z,976.62
2018-03-11T00:39:09.649Z,976.62
2018-03-11T00:40:09.592Z,976.61
2018-03-11T00:41:09.509Z,976.61
2018-03-11T00:42:09.451Z,976.67
2018-03-11T00:43:09.412Z,976.70
2018-03-11T00:44:09.318Z,976.68
2018-03-11T00:45:09.225Z,976.74
2018-03-11T00:46:09.152Z,976.77
2018-03-11T00:47:09.090Z,976.72
2018-03-11T00:48:09.034Z,976.72
2018-03-11T00:49:09.008Z,976.75
2018-03-11T00:50:08.889Z,976.77
2018-03-11T00:51:08.813Z,976.76
2018-03-11T00:52:08.769Z,976.76
2018-03-11T00:53:08.695Z,976.76
2018-03-11T00:54:08.616Z,976.74
2018-03-11T00:55:08.534Z,976.75
2018-03-11T00:56:08.471Z,976.71
2018-03-11T00:57:08.419Z,976.73
2018-03-11T00:58:08.331Z,976.63
2018-03-11T00:59:08.341Z,976.63
2018-03-11T01:00:08.239Z,976.57
2018-03-11T01:01:08.126Z,976.58
2018-03-11T01:02:08.063Z,976.58
2018-03-11T01:03:07.987Z,976.54
2018-03-11T01:04:07.933Z,976.53
2018-03-11T01:05:07.851Z,976.46
2018-03-11T01:06:07.781Z,976.51
2018-03-11T01:07:07.723Z,976.46
2018-03-11T01:08:07.661Z,976.52
2018-03-11T01:09:07.571Z,976.50
2018-03-11T01:10:07.505Z,976.49
2018-03-11T01:11:07.459Z,976.50
2018-03-11T01:12:07.367Z,976.51
2018-03-11T01:13:07.293Z,976.56
2018-03-11T01:14:07.225Z,976.50
2018-03-11T01:15:07.218Z,976.49
2018-03-11T01:16:07.103Z,976.54
2018-03-11T01:17:07.019Z,976.48
2018-03-11T01:18:06.949Z,976.49
2018-03-11T01:19:06.938Z,976.53
2018-03-11T01:20:06.833Z,976.54
2018-03-11T01:21:06.749Z,976.49
2018-03-11T01:22:06.701Z,976.51
2018-03-11T01:23:06.708Z,976.58
2018-03-11T01:24:06.575Z,976.55
2018-03-11T01:25:06.480Z,976.56
2018-03-11T01:26:06.407Z,976.53
2018-03-11T01:27:06.340Z,976.52
2018-03-11T01:28:06.253Z,976.49
2018-03-11T01:29:06.187Z,976.44
2018-03-11T01:30:06.127Z,976.40
2018-03-11T01:31:06.073Z,976.39
2018-03-11T01:32:05.971Z,976.34
2018-03-11T01:33:05.928Z,976.31
2018-03-11T01:34:05.847Z,976.35
2018-03-11T01:35:05.777Z,976.31
2018-03-11T01:36:05.691Z,976.35
2018-03-11T01:37:05.635Z,976.33
2018-03-11T01:38:05.551Z,976.28
2018-03-11T01:39:05.481Z,976.23
2018-03-11T01:40:05.423Z,976.19
2018-03-11T01:41:05.359Z,976.21
2018-03-11T01:42:05.287Z,976.19
2018-03-11T01:43:05.224Z,976.16
2018-03-11T01:44:05.140Z,976.19
2018-03-11T01:45:05.065Z,976.20
2018-03-11T01:46:04.997Z,976.16
2018-03-11T01:47:04.919Z,976.19
2018-03-11T01:48:04.866Z,976.15
2018-03-11T01:49:04.802Z,976.19
2018-03-11T01:50:04.721Z,976.18
2018-03-11T01:51:04.667Z,976.20
2018-03-11T01:52:04.584Z,976.14
2018-03-11T01:53:04.517Z,976.13
2018-03-11T01:54:04.441Z,976.09
2018-03-11T01:55:04.362Z,976.08
2018-03-11T01:56:04.291Z,976.08
2018-03-11T01:57:04.235Z,976.07
2018-03-11T01:58:04.185Z,976.09
2018-03-11T01:59:04.110Z,976.08
2018-03-11T02:00:04.023Z,976.05
2018-03-11T02:01:03.965Z,976.04
2018-03-11T02:02:03.872Z,975.99
2018-03-11T02:03:03.802Z,975.96
2018-03-11T02:04:03.755Z,975.89
2018-03-11T02:05:03.676Z,975.80
2018-03-11T02:06:03.595Z,975.83
2018-03-11T02:07:03.537Z,975.85
2018-03-11T02:08:03.474Z,975.84
2018-03-11T02:09:03.407Z,975.84
2018-03-11T02:10:03.309Z,975.82
2018-03-11T02:11:03.287Z,975.84
2018-03-11T02:12:03.173Z,975.83
2018-03-11T02:13:03.121Z,975.85
2018-03-11T02:14:03.054Z,975.84
2018-03-11T02:15:02.992Z,975.82
2018-03-11T02:16:02.897Z,975.79
2018-03-11T02:17:02.838Z,975.79
2018-03-11T02:18:02.774Z,975.73
2018-03-11T02:19:02.693Z,975.73
2018-03-11T02:20:02.629Z,975.71
2018-03-11T02:21:02.580Z,975.69
2018-03-11T02:22:02.471Z,975.56
2018-03-11T02:23:02.450Z,975.58
2018-03-11T02:24:02.339Z,975.52
2018-03-11T02:25:02.273Z,975.53
2018-03-11T02:26:02.197Z,975.49
2018-03-11T02:27:02.126Z,975.45
2018-03-11T02:28:02.059Z,975.42
2018-03-11T02:29:01.990Z,975.40
2018-03-11T02:30:01.958Z,975.36
2018-03-11T02:31:01.850Z,975.34
2018-03-11T02:32:01.785Z,975.33
2018-03-11T02:33:01.714Z,975.32
2018-03-11T02:34:01.647Z,975.26
2018-03-11T02:35:01.595Z,975.25
2018-03-11T02:36:01.517Z,975.24
2018-03-11T02:37:01.455Z,975.20
2018-03-11T02:38:01.380Z,975.18
2018-03-11T02:39:01.295Z,975.18
2018-03-11T02:40:01.226Z,975.21
2018-03-11T02:41:01.157Z,975.15
2018-03-11T02:42:01.091Z,975.14
2018-03-11T02:43:01.017Z,975.17
2018-03-11T02:44:00.971Z,975.15
2018-03-11T02:45:00.877Z,975.18
2018-03-11T02:46:00.832Z,975.23
2018-03-11T02:47:00.736Z,975.22
2018-03-11T02:48:00.667Z,975.22
2018-03-11T02:49:00.631Z,975.18
2018-03-11T02:50:00.547Z,975.15
2018-03-11T02:51:00.489Z,975.18
2018-03-11T02:52:00.404Z,975.18
2018-03-11T02:53:00.376Z,975.20
2018-03-11T02:54:00.265Z,975.18
2018-03-11T02:55:00.190Z,975.18
2018-03-11T02:56:00.110Z,975.16
2018-03-11T02:57:00.051Z,975.16
2018-03-11T02:57:59.990Z,975.18
2018-03-11T02:58:59.928Z,975.14
2018-03-11T02:59:59.849Z,975.09
2018-03-11T03:00:59.780Z,975.06
2018-03-11T03:01:59.706Z,975.02
2018-03-11T03:02:59.623Z,975.05
2018-03-11T03:03:59.568Z,975.01
2018-03-11T03:04:59.500Z,974.97
2018-03-11T03:05:59.545Z,974.97
2018-03-11T03:06:59.432Z,974.95
2018-03-11T03:07:59.273Z,974.92
2018-03-11T03:08:59.218Z,974.89
2018-03-11T03:09:59.181Z,974.88
2018-03-11T03:10:59.080Z,974.87
2018-03-11T03:11:58.995Z,974.89
2018-03-11T03:12:58.943Z,974.84
2018-03-11T03:13:58.875Z,974.88
2018-03-11T03:14:58.809Z,974.88
2018-03-11T03:15:58.724Z,974.88
2018-03-11T03:16:58.643Z,974.94
2018-03-11T03:17:58.578Z,974.91
2018-03-11T03:18:58.501Z,974.92
2018-03-11T03:19:58.456Z,974.92
2018-03-11T03:20:58.380Z,974.87
2018-03-11T03:21:58.319Z,974.87
2018-03-11T03:22:58.225Z,974.89
2018-03-11T03:23:58.171Z,974.87
2018-03-11T03:24:58.107Z,974.91
2018-03-11T03:25:58.029Z,974.90
2018-03-11T03:26:57.969Z,974.98
2018-03-11T03:27:57.870Z,974.91
2018-03-11T03:28:57.821Z,974.89
2018-03-11T03:29:57.743Z,974.88
2018-03-11T03:30:57.668Z,974.92
2018-03-11T03:31:57.593Z,974.96
2018-03-11T03:32:57.523Z,975.02
2018-03-11T03:33:57.455Z,975.03
2018-03-11T03:34:57.401Z,975.07
2018-03-11T03:35:57.328Z,975.09
2018-03-11T03:36:57.262Z,975.12
2018-03-11T03:37:57.194Z,975.13
2018-03-11T03:38:57.103Z,975.17
2018-03-11T03:39:57.067Z,975.22
2018-03-11T03:40:56.961Z,975.22
2018-03-11T03:41:56.897Z,975.22
2018-03-11T03:42:56.850Z,975.25
2018-03-11T03:43:56.755Z,975.23
2018-03-11T03:44:56.708Z,975.23
2018-03-11T03:45:56.636Z,975.23
2018-03-11T03:46:56.551Z,975.24
2018-03-11T03:47:56.477Z,975.25
2018-03-11T03:48:56.411Z,975.35
2018-03-11T03:49:56.339Z,975.41
2018-03-11T03:50:56.300Z,975.44
2018-03-11T03:51:56.214Z,975.46
2018-03-11T03:52:56.139Z,975.52
2018-03-11T03:53:56.063Z,975.55
2018-03-11T03:54:56.006Z,975.56
2018-03-11T03:55:55.917Z,975.51
2018-03-11T03:56:55.853Z,975.54
2018-03-11T03:57:55.775Z,975.53
2018-03-11T03:58:55.715Z,975.51
2018-03-11T03:59:55.662Z,975.54
2018-03-11T04:00:55.596Z,975.58
2018-03-11T04:01:55.519Z,975.57
2018-03-11T04:02:55.503Z,975.58
2018-03-11T04:03:55.362Z,975.61
2018-03-11T04:04:55.325Z,975.58
2018-03-11T04:05:55.239Z,975.51
2018-03-11T04:06:55.161Z,975.47
2018-03-11T04:07:55.099Z,975.36
2018-03-11T04:08:55.009Z,975.33
2018-03-11T04:09:54.971Z,975.28
2018-03-11T04:10:54.873Z,975.28
2018-03-11T04:11:54.856Z,975.34
2018-03-11T04:12:54.780Z,975.35
2018-03-11T04:13:54.675Z,975.40
2018-03-11T04:14:54.589Z,975.44
2018-03-11T04:15:54.529Z,975.44
2018-03-11T04:16:54.469Z,975.49
2018-03-11T04:17:54.386Z,975.52
2018-03-11T04:18:54.320Z,975.56
2018-03-11T04:19:54.251Z,975.57
2018-03-11T04:20:54.168Z,975.56
2018-03-11T04:21:54.099Z,975.58
2018-03-11T04:22:54.027Z,975.55
2018-03-11T04:23:53.959Z,975.54
2018-03-11T04:24:53.898Z,975.58
2018-03-11T04:25:53.813Z,975.58
2018-03-11T04:26:53.743Z,975.57
2018-03-11T04:27:53.673Z,975.59
2018-03-11T04:28:53.601Z,975.57
2018-03-11T04:29:53.532Z,975.54
2018-03-11T04:30:53.480Z,975.50
2018-03-11T04:31:53.414Z,975.48
2018-03-11T04:32:53.340Z,975.45
2018-03-11T04:33:53.300Z,975.46
2018-03-11T04:34:53.206Z,975.44
2018-03-11T04:35:53.124Z,975.46
2018-03-11T04:36:53.072Z,975.43
2018-03-11T04:37:52.991Z,975.45
2018-03-11T04:38:52.915Z,975.49
2018-03-11T04:39:52.841Z,975.50
2018-03-11T04:40:52.761Z,975.50
2018-03-11T04:41:52.725Z,975.52
2018-03-11T04:42:52.631Z,975.50
2018-03-11T04:43:52.572Z,975.55
2018-03-11T04:44:52.500Z,975.64
2018-03-11T04:45:52.430Z,975.67
2018-03-11T04:46:52.351Z,975.64
2018-03-11T04:47:52.279Z,975.63
2018-03-11T04:48:52.207Z,975.62
2018-03-11T04:49:52.136Z,975.63
2018-03-11T04:50:52.057Z,975.64
2018-03-11T04:51:52.004Z,975.67
2018-03-11T04:52:51.923Z,975.67
2018-03-11T04:53:51.862Z,975.61
2018-03-11T04:54:51.801Z,975.62
2018-03-11T04:55:51.733Z,975.63
2018-03-11T04:56:51.656Z,975.61
2018-03-11T04:57:51.566Z,975.65
2018-03-11T04:58:51.501Z,975.70
2018-03-11T04:59:51.429Z,975.74
2018-03-11T05:00:51.376Z,975.80
2018-03-11T05:01:51.283Z,975.83
2018-03-11T05:02:51.214Z,975.83
2018-03-11T05:03:51.142Z,975.85
2018-03-11T05:04:51.071Z,975.83
2018-03-11T05:05:51.014Z,975.78
2018-03-11T05:06:50.935Z,975.72
2018-03-11T05:07:50.863Z,975.67
2018-03-11T05:08:50.809Z,975.62
2018-03-11T05:09:50.724Z,975.62
2018-03-11T05:10:50.668Z,975.56
2018-03-11T05:11:50.619Z,975.53
2018-03-11T05:12:50.526Z,975.52
2018-03-11T05:13:50.455Z,975.52
2018-03-11T05:14:50.387Z,975.48
2018-03-11T05:15:50.297Z,975.46
2018-03-11T05:16:50.244Z,975.45
2018-03-11T05:17:50.186Z,975.41
2018-03-11T05:18:50.136Z,975.39
2018-03-11T05:19:50.048Z,975.38
2018-03-11T05:20:49.952Z,975.40
2018-03-11T05:21:49.876Z,975.44
2018-03-11T05:22:49.826Z,975.45
2018-03-11T05:23:49.759Z,975.42
2018-03-11T05:24:49.673Z,975.47
2018-03-11T05:25:49.602Z,975.49
2018-03-11T05:26:49.533Z,975.46
2018-03-11T05:27:49.473Z,975.56
2018-03-11T05:28:49.400Z,975.53
2018-03-11T05:29:49.320Z,975.63
2018-03-11T05:30:49.252Z,975.63
2018-03-11T05:31:49.176Z,975.67
2018-03-11T05:32:49.135Z,975.67
2018-03-11T05:33:49.069Z,975.71
2018-03-11T05:34:48.969Z,975.76
2018-03-11T05:35:48.916Z,975.79
2018-03-11T05:36:48.832Z,975.84
2018-03-11T05:37:48.770Z,975.83
2018-03-11T05:38:48.691Z,975.83
2018-03-11T05:39:48.609Z,975.78
2018-03-11T05:40:48.545Z,975.80
2018-03-11T05:41:48.471Z,975.80
2018-03-11T05:42:48.453Z,975.81
2018-03-11T05:43:48.349Z,975.81
2018-03-11T05:44:48.260Z,975.77
2018-03-11T05:45:48.195Z,975.77
2018-03-11T05:46:48.142Z,975.81
2018-03-11T05:47:48.059Z,975.80
2018-03-11T05:48:47.996Z,975.82
2018-03-11T05:49:47.916Z,975.80
2018-03-11T05:50:47.848Z,975.76
2018-03-11T05:51:47.795Z,975.81
2018-03-11T05:52:47.709Z,975.89
2018-03-11T05:53:47.637Z,975.87
2018-03-11T05:54:47.564Z,975.88
2018-03-11T05:55:47.497Z,975.95
2018-03-11T05:56:47.426Z,975.95
2018-03-11T05:57:47.356Z,975.99
2018-03-11T05:58:47.280Z,976.04
2018-03-11T05:59:47.239Z,976.08
2018-03-11T06:00:47.145Z,976.13
2018-03-11T06:01:47.075Z,976.14
2018-03-11T06:02:47.021Z,976.16
2018-03-11T06:03:46.940Z,976.19
2018-03-11T06:04:46.876Z,976.22
2018-03-11T06:05:46.808Z,976.21
2018-03-11T06:06:46.738Z,976.22
2018-03-11T06:07:46.660Z,976.25
2018-03-11T06:08:46.600Z,976.23
2018-03-11T06:09:46.516Z,976.14
2018-03-11T06:10:46.463Z,976.15
2018-03-11T06:11:46.405Z,976.09
2018-03-11T06:12:46.324Z,976.12
2018-03-11T06:13:46.269Z,976.11
2018-03-11T06:14:46.191Z,976.10
2018-03-11T06:15:46.099Z,976.10
2018-03-11T06:16:46.040Z,976.08
2018-03-11T06:17:45.962Z,976.07
2018-03-11T06:18:45.914Z,976.09
2018-03-11T06:19:45.828Z,976.14
2018-03-11T06:20:45.746Z,976.13
2018-03-11T06:21:45.675Z,976.13
2018-03-11T06:22:45.607Z,976.13
2018-03-11T06:23:45.559Z,976.13
2018-03-11T06:24:45.484Z,976.14
2018-03-11T06:25:45.401Z,976.16
2018-03-11T06:26:45.339Z,976.14
2018-03-11T06:27:45.255Z,976.15
2018-03-11T06:28:45.206Z,976.16
2018-03-11T06:29:45.119Z,976.22
2018-03-11T06:30:45.047Z,976.21
2018-03-11T06:31:44.983Z,976.18
2018-03-11T06:32:44.908Z,976.15
2018-03-11T06:33:44.839Z,976.17
2018-03-11T06:34:44.773Z,976.15
2018-03-11T06:35:44.719Z,976.18
2018-03-11T06:36:44.646Z,976.13
2018-03-11T06:37:44.576Z,976.16
2018-03-11T06:38:44.493Z,976.14
2018-03-11T06:39:44.423Z,976.14
2018-03-11T06:40:44.369Z,976.11
2018-03-11T06:41:44.302Z,976.13
2018-03-11T06:42:44.214Z,976.07
2018-03-11T06:43:44.144Z,976.08
2018-03-11T06:44:44.090Z,976.09
2018-03-11T06:45:44.015Z,976.07
2018-03-11T06:46:43.934Z,976.15
2018-03-11T06:47:43.863Z,976.15
2018-03-11T06:48:43.807Z,976.18
2018-03-11T06:49:43.734Z,976.17
2018-03-11T06:50:43.682Z,976.21
2018-03-11T06:51:43.592Z,976.21
2018-03-11T06:52:43.541Z,976.22
2018-03-11T06:53:43.458Z,976.26
2018-03-11T06:54:43.383Z,976.30
2018-03-11T06:55:43.338Z,976.35
2018-03-11T06:56:43.233Z,976.35
2018-03-11T06:57:43.166Z,976.32
2018-03-11T06:58:43.108Z,976.33
2018-03-11T06:59:43.046Z,976.32
2018-03-11T07:00:42.972Z,976.28
2018-03-11T07:01:42.887Z,976.26
2018-03-11T07:02:42.817Z,976.21
2018-03-11T07:03:42.759Z,976.24
2018-03-11T07:04:42.680Z,976.28
2018-03-11T07:05:42.626Z,976.28
2018-03-11T07:06:42.566Z,976.35
2018-03-11T07:07:42.492Z,976.36
2018-03-11T07:08:42.397Z,976.40
2018-03-11T07:09:42.341Z,976.35
2018-03-11T07:10:42.266Z,976.32
2018-03-11T07:11:42.204Z,976.32
2018-03-11T07:12:42.121Z,976.35
2018-03-11T07:13:42.066Z,976.38
2018-03-11T07:14:41.989Z,976.37
2018-03-11T07:15:41.942Z,976.37
2018-03-11T07:16:41.839Z,976.34
2018-03-11T07:17:41.796Z,976.35
2018-03-11T07:18:41.698Z,976.37
2018-03-11T07:19:41.647Z,976.37
2018-03-11T07:20:41.567Z,976.37
2018-03-11T07:21:41.501Z,976.31
2018-03-11T07:22:41.440Z,976.33
2018-03-11T07:23:41.383Z,976.35
2018-03-11T07:24:41.301Z,976.38
2018-03-11T07:25:41.232Z,976.34
2018-03-11T07:26:41.145Z,976.38
2018-03-11T07:27:41.091Z,976.40
2018-03-11T07:28:41.007Z,976.43
2018-03-11T07:29:40.958Z,976.44
2018-03-11T07:30:40.867Z,976.48
2018-03-11T07:31:40.793Z,976.50
2018-03-11T07:32:40.757Z,976.52
2018-03-11T07:33:40.663Z,976.52
2018-03-11T07:34:40.685Z,976.49
2018-03-11T07:35:40.521Z,976.54
2018-03-11T07:36:40.467Z,976.55
2018-03-11T07:37:40.383Z,976.56
2018-03-11T07:38:40.326Z,976.54
2018-03-11T07:39:40.283Z,976.57
2018-03-11T07:40:40.186Z,976.54
2018-03-11T07:41:40.126Z,976.52
2018-03-11T07:42:40.044Z,976.51
2018-03-11T07:43:39.977Z,976.51
2018-03-11T07:44:39.928Z,976.42
2018-03-11T07:45:39.868Z,976.48
2018-03-11T07:46:39.790Z,976.50
2018-03-11T07:47:39.706Z,976.45
2018-03-11T07:48:39.648Z,976.43
2018-03-11T07:49:39.582Z,976.41
2018-03-11T07:50:39.544Z,976.35
2018-03-11T07:51:39.430Z,976.39
2018-03-11T07:52:39.364Z,976.38
2018-03-11T07:53:39.294Z,976.37
2018-03-11T07:54:39.261Z,976.35
2018-03-11T07:55:39.151Z,976.36
2018-03-11T07:56:39.093Z,976.37
2018-03-11T07:57:39.046Z,976.37
2018-03-11T07:58:38.975Z,976.39
2018-03-11T07:59:38.892Z,976.39
2018-03-11T08:00:38.831Z,976.44
2018-03-11T08:01:38.748Z,976.51
2018-03-11T08:02:38.694Z,976.47
2018-03-11T08:03:38.618Z,976.50
2018-03-11T08:04:38.539Z,976.48
2018-03-11T08:05:38.482Z,976.54
2018-03-11T08:06:38.420Z,976.55
2018-03-11T08:07:38.332Z,976.56
2018-03-11T08:08:38.282Z,976.58
2018-03-11T08:09:38.200Z,976.58
2018-03-11T08:10:38.125Z,976.64
2018-03-11T08:11:38.055Z,976.57
2018-03-11T08:12:37.989Z,976.66
2018-03-11T08:13:37.918Z,976.70
2018-03-11T08:14:37.887Z,976.69
2018-03-11T08:15:37.798Z,976.71
2018-03-11T08:16:37.715Z,976.74
2018-03-11T08:17:37.661Z,976.73
2018-03-11T08:18:37.596Z,976.70
2018-03-11T08:19:37.513Z,976.71
2018-03-11T08:20:37.461Z,976.75
2018-03-11T08:21:37.375Z,976.76
2018-03-11T08:22:37.314Z,976.72
2018-03-11T08:23:37.231Z,976.69
2018-03-11T08:24:37.196Z,976.65
2018-03-11T08:25:37.123Z,976.59
2018-03-11T08:26:37.040Z,976.59
2018-03-11T08:27:36.975Z,976.59
2018-03-11T08:28:36.920Z,976.52
2018-03-11T08:29:36.842Z,976.52
2018-03-11T08:30:36.780Z,976.49
2018-03-11T08:31:36.697Z,976.49
2018-03-11T08:32:36.639Z,976.54
2018-03-11T08:33:36.547Z,976.52
2018-03-11T08:34:36.484Z,976.51
2018-03-11T08:35:36.411Z,976.47
2018-03-11T08:36:36.360Z,976.50
2018-03-11T08:37:36.319Z,976.48
2018-03-11T08:38:36.205Z,976.46
2018-03-11T08:39:36.137Z,976.47
2018-03-11T08:40:36.073Z,976.45
2018-03-11T08:41:35.999Z,976.47
2018-03-11T08:42:35.945Z,976.52
2018-03-11T08:43:35.855Z,976.52
2018-03-11T08:44:35.800Z,976.53
2018-03-11T08:45:35.727Z,976.51
2018-03-11T08:46:35.675Z,976.51
2018-03-11T08:47:35.590Z,976.47
2018-03-11T08:48:35.539Z,976.50
2018-03-11T08:49:36.010Z,976.52
2018-03-11T08:50:35.403Z,976.54
2018-03-11T08:51:35.339Z,976.57
2018-03-11T08:52:35.243Z,976.56
2018-03-11T08:53:35.172Z,976.57
2018-03-11T08:54:35.177Z,976.56
2018-03-11T08:55:35.050Z,976.58
2018-03-11T08:56:34.970Z,976.61
2018-03-11T08:57:34.920Z,976.62
2018-03-11T08:58:34.893Z,976.67
2018-03-11T08:59:34.808Z,976.67
2018-03-11T09:00:34.724Z,976.68
2018-03-11T09:01:34.640Z,976.65
2018-03-11T09:02:34.557Z,976.62
2018-03-11T09:03:34.505Z,976.64
2018-03-11T09:04:34.423Z,976.66
2018-03-11T09:05:34.372Z,976.66
2018-03-11T09:06:34.279Z,976.63
2018-03-11T09:07:34.210Z,976.67
2018-03-11T09:08:34.172Z,976.68
2018-03-11T09:09:34.081Z,976.71
2018-03-11T09:10:34.024Z,976.72
2018-03-11T09:11:33.951Z,976.72
2018-03-11T09:12:33.894Z,976.72
2018-03-11T09:13:33.814Z,976.74
2018-03-11T09:14:33.735Z,976.75
2018-03-11T09:15:33.665Z,976.75
2018-03-11T09:16:33.596Z,976.75
2018-03-11T09:17:33.524Z,976.74
2018-03-11T09:18:33.451Z,976.70
2018-03-11T09:19:33.414Z,976.68
2018-03-11T09:20:33.315Z,976.70
2018-03-11T09:21:33.274Z,976.69
2018-03-11T09:22:33.199Z,976.64
2018-03-11T09:23:33.124Z,976.67
2018-03-11T09:24:33.044Z,976.68
2018-03-11T09:25:32.992Z,976.71
2018-03-11T09:26:32.925Z,976.69
2018-03-11T09:27:32.848Z,976.71
2018-03-11T09:28:32.780Z,976.69
2018-03-11T09:29:32.695Z,976.72
2018-03-11T09:30:32.659Z,976.75
2018-03-11T09:31:32.577Z,976.71
2018-03-11T09:32:32.521Z,976.67
2018-03-11T09:33:32.439Z,976.67
2018-03-11T09:34:32.349Z,976.69
2018-03-11T09:35:32.284Z,976.71
2018-03-11T09:36:32.248Z,976.66
2018-03-11T09:37:32.161Z,976.70
2018-03-11T09:38:32.097Z,976.70
2018-03-11T09:39:32.030Z,976.70
2018-03-11T09:40:31.961Z,976.73
2018-03-11T09:41:31.966Z,976.77
2018-03-11T09:42:31.820Z,976.74
2018-03-11T09:43:31.739Z,976.78
2018-03-11T09:44:31.680Z,976.73
2018-03-11T09:45:31.649Z,976.76
2018-03-11T09:46:31.548Z,976.76
2018-03-11T09:47:31.487Z,976.75
2018-03-11T09:48:31.399Z,976.75
2018-03-11T09:49:31.336Z,976.74
2018-03-11T09:50:31.281Z,976.72
2018-03-11T09:51:31.194Z,976.73
2018-03-11T09:52:31.182Z,976.79
2018-03-11T09:53:31.048Z,976.76
2018-03-11T09:54:30.981Z,976.74
2018-03-11T09:55:30.920Z,976.71
2018-03-11T09:56:30.874Z,976.75
2018-03-11T09:57:30.779Z,976.78
2018-03-11T09:58:30.705Z,976.80
2018-03-11T09:59:30.635Z,976.83
2018-03-11T10:00:30.586Z,976.84
2018-03-11T10:01:30.503Z,976.78
2018-03-11T10:02:30.447Z,976.78
2018-03-11T10:03:30.381Z,976.78
2018-03-11T10:04:30.335Z,976.78
2018-03-11T10:05:30.243Z,976.76
2018-03-11T10:06:30.271Z,976.77
2018-03-11T10:07:30.093Z,976.75
2018-03-11T10:08:30.037Z,976.71
2018-03-11T10:09:29.952Z,976.69
2018-03-11T10:10:29.912Z,976.65
2018-03-11T10:11:29.834Z,976.66
2018-03-11T10:12:29.774Z,976.67
2018-03-11T10:13:29.731Z,976.70
2018-03-11T10:14:29.609Z,976.69
2018-03-11T10:15:29.552Z,976.71
2018-03-11T10:16:29.483Z,976.67
2018-03-11T10:17:29.412Z,976.71
2018-03-11T10:18:29.383Z,976.70
2018-03-11T10:19:29.294Z,976.68
2018-03-11T10:20:29.205Z,976.64
2018-03-11T10:21:29.150Z,976.64
2018-03-11T10:22:29.089Z,976.67
2018-03-11T10:23:29.006Z,976.66
2018-03-11T10:24:28.952Z,976.67
2018-03-11T10:25:28.856Z,976.70
2018-03-11T10:26:28.806Z,976.68
2018-03-11T10:27:28.725Z,976.64
2018-03-11T10:28:28.656Z,976.59
2018-03-11T10:29:28.601Z,976.58
2018-03-11T10:30:28.520Z,976.58
2018-03-11T10:31:28.485Z,976.60
2018-03-11T10:32:28.390Z,976.64
2018-03-11T10:33:28.342Z,976.68
2018-03-11T10:34:28.258Z,976.69
2018-03-11T10:35:28.204Z,976.64
2018-03-11T10:36:28.125Z,976.61
2018-03-11T10:37:28.056Z,976.67
2018-03-11T10:38:27.993Z,976.63
2018-03-11T10:39:27.925Z,976.65
2018-03-11T10:40:27.903Z,976.63
2018-03-11T10:41:27.771Z,976.62
2018-03-11T10:42:27.748Z,976.57
2018-03-11T10:43:27.638Z,976.60
2018-03-11T10:44:27.619Z,976.53
2018-03-11T10:45:27.523Z,976.54
2018-03-11T10:46:27.449Z,976.52
2018-03-11T10:47:27.367Z,976.52
2018-03-11T10:48:27.296Z,976.51
2018-03-11T10:49:27.247Z,976.52
2018-03-11T10:50:27.162Z,976.46
2018-03-11T10:51:27.098Z,976.45
2018-03-11T10:52:27.047Z,976.48
2018-03-11T10:53:26.956Z,976.44
2018-03-11T10:54:26.890Z,976.40
2018-03-11T10:55:26.822Z,976.40
2018-03-11T10:56:26.758Z,976.40
2018-03-11T10:57:26.696Z,976.38
2018-03-11T10:58:26.625Z,976.40
2018-03-11T10:59:26.556Z,976.38
2018-03-11T11:00:26.501Z,976.37
2018-03-11T11:01:26.435Z,976.40
2018-03-11T11:02:26.371Z,976.38
2018-03-11T11:03:26.298Z,976.38
2018-03-11T11:04:26.233Z,976.37
2018-03-11T11:05:26.143Z,976.41
2018-03-11T11:06:26.093Z,976.43
2018-03-11T11:07:26.016Z,976.44
2018-03-11T11:08:26.019Z,976.44
2018-03-11T11:09:25.887Z,976.45
2018-03-11T11:10:25.839Z,976.41
2018-03-11T11:11:25.759Z,976.37
2018-03-11T11:12:25.688Z,976.42
2018-03-11T11:13:25.637Z,976.39
2018-03-11T11:14:25.564Z,976.29
2018-03-11T11:15:25.478Z,976.29
2018-03-11T11:16:25.429Z,976.27
2018-03-11T11:17:25.344Z,976.32
2018-03-11T11:18:25.284Z,976.27
2018-03-11T11:19:25.216Z,976.29
2018-03-11T11:20:25.163Z,976.29
2018-03-11T11:21:25.088Z,976.27
2018-03-11T11:22:25.018Z,976.29
2018-03-11T11:23:24.962Z,976.31
2018-03-11T11:24:24.894Z,976.28
2018-03-11T11:25:24.810Z,976.28
2018-03-11T11:26:24.748Z,976.32
2018-03-11T11:27:24.692Z,976.28
2018-03-11T11:28:24.611Z,976.28
2018-03-11T11:29:24.534Z,976.29
2018-03-11T11:30:24.527Z,976.27
2018-03-11T11:31:24.622Z,976.28
2018-03-11T11:32:24.366Z,976.31
2018-03-11T11:33:24.273Z,976.28
2018-03-11T11:34:24.215Z,976.26
2018-03-11T11:35:24.141Z,976.30
2018-03-11T11:36:24.096Z,976.36
2018-03-11T11:37:24.019Z,976.10
2018-03-11T11:38:23.954Z,976.20
2018-03-11T11:39:23.874Z,976.32
2018-03-11T11:40:23.825Z,976.22
2018-03-11T11:41:23.740Z,976.29
2018-03-11T11:42:23.668Z,976.31
2018-03-11T11:43:23.631Z,976.30
2018-03-11T11:44:23.550Z,976.37
2018-03-11T11:45:23.470Z,976.32
2018-03-11T11:46:23.404Z,976.32
2018-03-11T11:47:23.351Z,976.29
2018-03-11T11:48:23.274Z,976.30
2018-03-11T11:49:23.204Z,976.34
2018-03-11T11:50:23.144Z,976.31
2018-03-11T11:51:23.069Z,976.31
2018-03-11T11:52:23.004Z,976.29
2018-03-11T11:53:22.932Z,976.26
2018-03-11T11:54:22.900Z,976.30
2018-03-11T11:55:22.804Z,976.25
2018-03-11T11:56:22.733Z,976.25
2018-03-11T11:57:22.674Z,976.24
2018-03-11T11:58:22.609Z,976.28
2018-03-11T11:59:22.553Z,976.18
2018-03-11T12:00:22.483Z,976.20
2018-03-11T12:01:22.420Z,976.20
2018-03-11T12:02:22.334Z,976.05
2018-03-11T12:03:22.300Z,976.08
2018-03-11T12:04:22.214Z,976.02
2018-03-11T12:05:22.247Z,975.98
2018-03-11T12:06:22.067Z,975.94
2018-03-11T13:02:51.738Z,975.21
2018-03-11T13:03:51.512Z,975.21
2018-03-11T13:05:46.790Z,975.18
2018-03-11T13:06:46.680Z,975.20
2018-03-11T13:08:41.985Z,975.13
2018-03-11T13:09:41.858Z,975.02
2018-03-11T13:11:37.381Z,974.97
2018-03-11T13:12:37.054Z,975.11
2018-03-11T13:14:32.303Z,974.90
2018-03-11T13:15:32.213Z,974.84
2018-03-11T13:17:27.515Z,974.79
2018-03-11T13:18:27.420Z,974.90
2018-03-11T13:20:22.736Z,974.80
2018-03-11T13:21:22.604Z,974.83
2018-03-11T13:23:17.924Z,974.76
2018-03-11T13:24:17.791Z,974.81
2018-03-11T13:26:13.064Z,974.75
2018-03-11T13:27:12.978Z,974.66
2018-03-11T13:29:08.276Z,974.75
2018-03-11T13:30:08.185Z,974.67
2018-03-11T13:32:03.445Z,974.60